Time;durP1;ratioP1;P1;durP2;ratioP2;P2;SDS_P1;SDS_P2;PMS_P1;PMS_P2;Temp;Humidity;BMP_temperature;BMP_pressure;BME280_temperature;BME280_humidity;BME280_pressure;Samples;Min_cycle;Max_cycle;Signal;HPM_P1;HPM_P2
2021/04/29 00:00:16;;;;;;;6.57;3.35;;;11.50;49.30;;;;;;5073306;28;20052;-72
2021/04/29 00:02:44;;;;;;;6.10;3.20;;;11.50;49.50;;;;;;5072991;28;20033;-72
2021/04/29 00:05:13;;;;;;;5.82;3.55;;;11.50;49.70;;;;;;5073831;28;20098;-72
2021/04/29 00:07:41;;;;;;;5.05;2.63;;;11.40;49.70;;;;;;5072873;28;20067;-72
2021/04/29 00:10:12;;;;;;;5.60;3.05;;;11.40;50.30;;;;;;5069052;28;20041;-71
2021/04/29 00:12:39;;;;;;;6.53;2.67;;;11.40;49.70;;;;;;5073040;28;20044;-72
2021/04/29 00:15:12;;;;;;;5.50;3.25;;;11.40;49.80;;;;;;5072449;28;20424;-72
2021/04/29 00:17:40;;;;;;;6.53;3.53;;;11.40;50.00;;;;;;5071214;28;20040;-72
2021/04/29 00:20:09;;;;;;;4.60;2.65;;;11.30;50.10;;;;;;5074144;28;20040;-72
2021/04/29 00:22:35;;;;;;;6.43;3.50;;;11.30;50.30;;;;;;5073588;28;20040;-71
2021/04/29 00:25:03;;;;;;;6.03;3.10;;;11.30;50.50;;;;;;5063248;28;20443;-72
2021/04/29 00:27:29;;;;;;;6.65;3.50;;;11.20;50.60;;;;;;5070811;28;20529;-71
2021/04/29 00:29:56;;;;;;;7.63;4.38;;;11.20;50.70;;;;;;5073827;28;20496;-71
2021/04/29 00:32:22;;;;;;;6.80;3.80;;;11.10;50.90;;;;;;5062291;28;20052;-71
2021/04/29 00:34:49;;;;;;;5.00;2.85;;;11.00;51.00;;;;;;5073822;28;20040;-72
2021/04/29 00:37:16;;;;;;;7.40;3.15;;;11.00;51.00;;;;;;5073951;28;20047;-72
2021/04/29 00:39:42;;;;;;;7.65;4.78;;;11.00;51.20;;;;;;5072225;28;20037;-71
2021/04/29 00:42:09;;;;;;;7.07;3.80;;;10.90;51.60;;;;;;5074031;28;20047;-72
2021/04/29 00:44:39;;;;;;;6.47;3.55;;;10.90;52.20;;;;;;5043134;28;20430;-71
2021/04/29 00:47:06;;;;;;;6.82;3.88;;;10.90;51.60;;;;;;5073601;28;20128;-71
2021/04/29 00:49:34;;;;;;;8.82;4.68;;;10.90;51.70;;;;;;5060952;28;20046;-72
2021/04/29 00:52:01;;;;;;;6.85;3.45;;;10.90;52.10;;;;;;5071985;28;20062;-72
2021/04/29 00:54:29;;;;;;;5.47;3.42;;;10.90;52.00;;;;;;5056327;28;20083;-71
2021/04/29 00:56:56;;;;;;;6.40;3.35;;;10.80;52.10;;;;;;5072264;28;20746;-72
2021/04/29 00:59:23;;;;;;;5.82;3.20;;;10.80;52.20;;;;;;5061665;28;20047;-72
2021/04/29 01:02:00;;;;;;;7.20;3.13;;;10.80;52.30;;;;;;5089386;28;20493;-71
2021/04/29 01:04:42;;;;;;;7.43;3.53;;;10.80;52.30;;;;;;5072523;28;20040;-72
2021/04/29 01:07:15;;;;;;;5.50;2.92;;;10.80;53.10;;;;;;5078545;28;20048;-71
2021/04/29 01:09:59;;;;;;;4.68;2.70;;;10.80;52.60;;;;;;5078734;28;20148;-71
2021/04/29 01:12:41;;;;;;;5.97;2.88;;;10.80;52.50;;;;;;5068075;28;20037;-72
2021/04/29 01:15:09;;;;;;;4.05;2.00;;;10.70;52.60;;;;;;5070350;28;20031;-71
2021/04/29 01:17:37;;;;;;;5.13;2.88;;;10.70;52.60;;;;;;5049563;28;20127;-72
2021/04/29 01:20:06;;;;;;;5.53;2.78;;;10.70;52.80;;;;;;5073397;28;20495;-71
2021/04/29 01:22:43;;;;;;;4.13;2.28;;;10.70;52.90;;;;;;5076632;28;20109;-72
2021/04/29 01:25:15;;;;;;;5.57;3.13;;;10.70;53.00;;;;;;5073254;28;20118;-71
2021/04/29 01:27:43;;;;;;;5.20;3.22;;;10.60;53.30;;;;;;5072861;28;20885;-72
2021/04/29 01:30:12;;;;;;;5.07;2.95;;;10.50;53.70;;;;;;5072964;28;20098;-71
2021/04/29 01:32:40;;;;;;;6.78;3.33;;;10.50;53.60;;;;;;5051354;28;20064;-72
2021/04/29 01:35:10;;;;;;;4.97;2.50;;;10.50;53.80;;;;;;5068380;28;20048;-71
2021/04/29 01:37:37;;;;;;;4.57;2.47;;;10.40;53.80;;;;;;5070887;28;20044;-71
2021/04/29 01:40:05;;;;;;;6.30;2.95;;;10.40;53.80;;;;;;5076004;28;20040;-71
2021/04/29 01:42:36;;;;;;;5.25;2.90;;;10.40;54.00;;;;;;5071502;28;20037;-72
2021/04/29 01:45:06;;;;;;;4.00;2.42;;;10.30;54.10;;;;;;5070841;28;20043;-72
2021/04/29 01:47:34;;;;;;;3.73;2.03;;;10.30;54.10;;;;;;5070891;28;20169;-71
2021/04/29 01:50:07;;;;;;;5.32;2.75;;;10.30;54.30;;;;;;5071228;28;20447;-71
2021/04/29 01:52:34;;;;;;;4.82;2.95;;;10.30;54.40;;;;;;5072548;28;20068;-71
2021/04/29 01:55:02;;;;;;;4.90;2.72;;;10.20;54.50;;;;;;5054593;28;20052;-71
2021/04/29 01:57:29;;;;;;;5.20;2.60;;;10.20;54.70;;;;;;5070595;28;20044;-71
2021/04/29 01:59:56;;;;;;;4.85;2.67;;;10.20;54.70;;;;;;5070676;28;20052;-71
2021/04/29 02:02:24;;;;;;;6.38;3.83;;;10.20;54.70;;;;;;5037617;28;20173;-71
2021/04/29 02:04:51;;;;;;;4.60;2.55;;;10.20;55.00;;;;;;5054429;28;20044;-71
2021/04/29 02:07:18;;;;;;;4.35;2.40;;;10.20;55.00;;;;;;5072097;28;20044;-71
2021/04/29 02:09:45;;;;;;;5.57;2.78;;;10.20;55.00;;;;;;5050773;28;20515;-71
2021/04/29 02:12:12;;;;;;;4.97;2.63;;;10.20;55.10;;;;;;5068124;28;20098;-71
2021/04/29 02:14:51;;;;;;;6.03;2.95;;;10.20;55.20;;;;;;5050716;28;20550;-70
2021/04/29 02:17:23;;;;;;;5.15;2.55;;;10.20;55.30;;;;;;5070383;28;20068;-70
2021/04/29 02:19:51;;;;;;;5.53;3.03;;;10.10;55.30;;;;;;5070516;28;20068;-70
2021/04/29 02:22:20;;;;;;;4.15;2.42;;;10.10;55.50;;;;;;5071281;28;20048;-70
2021/04/29 02:24:48;;;;;;;4.88;2.38;;;10.10;55.50;;;;;;5071930;28;20037;-70
2021/04/29 02:27:14;;;;;;;3.25;1.85;;;10.10;55.50;;;;;;5069956;28;20048;-70
2021/04/29 02:29:44;;;;;;;3.90;2.33;;;10.10;55.50;;;;;;5071642;28;20051;-70
2021/04/29 02:32:13;;;;;;;5.00;2.15;;;10.20;55.60;;;;;;5070953;28;20388;-71
2021/04/29 02:34:42;;;;;;;3.30;1.98;;;10.10;55.60;;;;;;5071792;28;20475;-70
2021/04/29 02:37:09;;;;;;;2.92;1.60;;;10.20;55.70;;;;;;5062666;28;20032;-70
2021/04/29 02:39:36;;;;;;;4.43;2.72;;;10.20;55.70;;;;;;5070398;28;20044;-70
2021/04/29 02:42:03;;;;;;;4.10;2.10;;;10.20;55.90;;;;;;5049800;28;20045;-70
2021/04/29 02:44:31;;;;;;;3.90;2.63;;;10.20;56.00;;;;;;5068443;28;20060;-70
2021/04/29 02:46:58;;;;;;;6.40;2.75;;;10.20;55.90;;;;;;5071174;28;20560;-70
2021/04/29 02:49:26;;;;;;;4.55;2.42;;;10.20;56.00;;;;;;5053859;28;20586;-70
2021/04/29 02:51:53;;;;;;;4.95;2.67;;;10.20;56.10;;;;;;5070826;28;20041;-71
2021/04/29 02:54:22;;;;;;;4.38;2.20;;;10.20;56.10;;;;;;5071493;28;20143;-70
2021/04/29 02:56:49;;;;;;;4.93;2.60;;;10.20;56.20;;;;;;5069689;28;20032;-70
2021/04/29 02:59:16;;;;;;;5.20;2.22;;;10.20;56.20;;;;;;5052834;28;20079;-70
2021/04/29 03:01:42;;;;;;;5.13;2.78;;;10.20;56.30;;;;;;5071046;28;20094;-70
2021/04/29 03:04:09;;;;;;;5.40;2.67;;;10.20;56.30;;;;;;5053145;28;20097;-70
2021/04/29 03:06:36;;;;;;;5.38;3.47;;;10.20;56.50;;;;;;5070082;28;20094;-70
2021/04/29 03:09:04;;;;;;;6.15;3.58;;;10.10;56.80;;;;;;5071173;28;20037;-71
2021/04/29 03:11:34;;;;;;;5.20;3.17;;;10.10;57.00;;;;;;5070144;28;20496;-71
2021/04/29 03:14:01;;;;;;;5.07;2.67;;;10.10;57.00;;;;;;5071351;28;20043;-71
2021/04/29 03:16:28;;;;;;;4.40;2.33;;;10.00;57.00;;;;;;5071411;28;20064;-71
2021/04/29 03:18:55;;;;;;;5.18;2.42;;;10.10;57.10;;;;;;5071136;28;20553;-71
2021/04/29 03:21:22;;;;;;;3.97;2.15;;;10.00;57.10;;;;;;5071123;28;20043;-71
2021/04/29 03:23:49;;;;;;;4.88;2.50;;;10.00;57.10;;;;;;5069547;28;20040;-71
2021/04/29 03:26:15;;;;;;;4.68;2.20;;;10.00;57.30;;;;;;5049985;28;20096;-71
2021/04/29 03:28:42;;;;;;;4.47;2.13;;;10.00;57.30;;;;;;5068638;28;20102;-71
2021/04/29 03:31:08;;;;;;;3.53;2.03;;;10.00;57.30;;;;;;5070805;28;20041;-71
2021/04/29 03:33:35;;;;;;;4.38;2.38;;;10.00;57.50;;;;;;5069694;28;20056;-71
2021/04/29 03:36:02;;;;;;;4.47;2.03;;;10.00;57.60;;;;;;5069332;28;20041;-71
2021/04/29 03:38:28;;;;;;;5.25;2.38;;;10.00;57.60;;;;;;5069734;28;20064;-71
2021/04/29 03:40:55;;;;;;;4.57;2.40;;;10.00;57.60;;;;;;5069927;28;20044;-71
2021/04/29 03:43:22;;;;;;;4.20;2.25;;;10.00;57.60;;;;;;5069081;28;20044;-71
2021/04/29 03:45:49;;;;;;;4.85;2.08;;;10.00;57.60;;;;;;5069764;28;20677;-71
2021/04/29 03:48:15;;;;;;;4.85;2.45;;;10.10;57.70;;;;;;5069648;28;20044;-71
2021/04/29 03:50:42;;;;;;;4.93;2.50;;;10.10;57.80;;;;;;5070925;28;20055;-71
2021/04/29 03:53:09;;;;;;;4.60;2.38;;;10.10;57.80;;;;;;5070737;28;20040;-71
2021/04/29 03:55:36;;;;;;;4.47;2.00;;;10.10;57.80;;;;;;5069162;28;20105;-71
2021/04/29 03:58:02;;;;;;;4.80;2.20;;;10.10;57.80;;;;;;5070567;28;20032;-70
2021/04/29 04:00:29;;;;;;;8.02;2.38;;;10.10;57.90;;;;;;5070360;28;20093;-71
2021/04/29 04:02:55;;;;;;;4.78;2.60;;;10.10;58.00;;;;;;5052788;28;20043;-71
2021/04/29 04:05:22;;;;;;;4.18;2.40;;;10.10;58.00;;;;;;5070158;28;20036;-71
2021/04/29 04:07:49;;;;;;;8.43;4.20;;;10.10;58.10;;;;;;5069530;28;20361;-71
2021/04/29 04:10:15;;;;;;;4.68;2.72;;;10.20;58.30;;;;;;5070241;28;20090;-72
2021/04/29 04:12:42;;;;;;;4.72;2.63;;;10.10;58.20;;;;;;5052608;28;20079;-72
2021/04/29 04:15:09;;;;;;;6.63;3.20;;;10.10;58.30;;;;;;5053322;28;20041;-72
2021/04/29 04:17:36;;;;;;;5.55;3.58;;;10.20;58.50;;;;;;5072956;28;20090;-72
2021/04/29 04:20:21;;;;;;;4.15;2.42;;;10.10;58.60;;;;;;5073372;28;20153;-72
2021/04/29 04:22:49;;;;;;;4.80;2.72;;;10.00;58.80;;;;;;5073876;28;20040;-72
2021/04/29 04:25:16;;;;;;;4.93;2.85;;;10.00;58.90;;;;;;5072348;28;20094;-71
2021/04/29 04:27:43;;;;;;;3.78;2.20;;;10.00;59.00;;;;;;5072116;28;20068;-71
2021/04/29 04:30:10;;;;;;;5.57;3.05;;;10.00;59.20;;;;;;5073506;28;20118;-71
2021/04/29 04:32:37;;;;;;;6.00;2.58;;;10.00;59.40;;;;;;5072640;28;20049;-72
2021/04/29 04:35:04;;;;;;;8.18;4.57;;;10.00;59.80;;;;;;5072070;28;20102;-72
2021/04/29 04:37:31;;;;;;;7.15;4.72;;;9.90;61.00;;;;;;5068210;28;20036;-72
2021/04/29 04:39:58;;;;;;;10.52;6.65;;;9.80;61.70;;;;;;5052702;28;20037;-71
2021/04/29 04:42:24;;;;;;;9.35;5.25;;;9.60;62.80;;;;;;5046824;28;20120;-71
2021/04/29 04:44:52;;;;;;;7.67;5.10;;;9.50;63.40;;;;;;5069072;28;20044;-70
2021/04/29 04:47:18;;;;;;;11.30;6.67;;;9.30;63.90;;;;;;5072480;28;20048;-70
2021/04/29 04:49:51;;;;;;;10.77;6.00;;;9.10;65.50;;;;;;5073470;28;20048;-71
2021/04/29 04:52:17;;;;;;;8.57;5.55;;;9.00;65.60;;;;;;5071562;28;20055;-71
2021/04/29 04:54:44;;;;;;;7.00;4.33;;;9.00;65.60;;;;;;5055484;28;20128;-71
2021/04/29 04:57:11;;;;;;;8.37;5.40;;;8.90;65.50;;;;;;5055208;28;20036;-72
2021/04/29 04:59:38;;;;;;;7.37;5.20;;;8.90;66.10;;;;;;5063749;28;20033;-72
2021/04/29 05:02:05;;;;;;;7.03;3.73;;;8.80;66.30;;;;;;5071301;28;20040;-71
2021/04/29 05:04:33;;;;;;;7.73;4.83;;;8.80;66.10;;;;;;5072242;28;20498;-72
2021/04/29 05:07:03;;;;;;;8.73;6.00;;;8.80;66.50;;;;;;5073393;28;20052;-72
2021/04/29 05:09:32;;;;;;;9.23;5.23;;;8.80;67.30;;;;;;5073154;28;20068;-72
2021/04/29 05:11:58;;;;;;;9.67;6.07;;;8.80;67.20;;;;;;5068623;28;20045;-72
2021/04/29 05:14:27;;;;;;;7.60;5.00;;;8.80;67.40;;;;;;5072993;28;20059;-72
2021/04/29 05:16:54;;;;;;;7.87;4.90;;;8.80;67.40;;;;;;5072045;28;20318;-72
2021/04/29 05:19:21;;;;;;;7.30;4.57;;;8.80;67.40;;;;;;5052264;28;20044;-71
2021/04/29 05:21:47;;;;;;;7.40;4.60;;;8.80;67.60;;;;;;5051851;28;20409;-72
2021/04/29 05:24:14;;;;;;;7.33;4.20;;;8.90;67.50;;;;;;5068971;28;20048;-71
2021/04/29 05:26:41;;;;;;;7.37;4.37;;;8.90;67.40;;;;;;5054916;28;20093;-71
2021/04/29 05:29:08;;;;;;;6.28;4.15;;;9.00;67.70;;;;;;5052943;28;20037;-72
2021/04/29 05:31:35;;;;;;;6.10;3.87;;;9.00;67.50;;;;;;5073290;28;20040;-71
2021/04/29 05:34:03;;;;;;;7.50;4.53;;;9.00;67.60;;;;;;5076131;28;20209;-71
2021/04/29 05:36:31;;;;;;;6.93;4.77;;;9.10;67.90;;;;;;5075678;28;20094;-71
2021/04/29 05:39:00;;;;;;;9.40;5.20;;;9.10;68.20;;;;;;5070201;28;20071;-72
2021/04/29 05:41:26;;;;;;;9.80;5.97;;;9.10;68.40;;;;;;5069496;28;20044;-71
2021/04/29 05:43:53;;;;;;;11.48;7.03;;;9.10;68.80;;;;;;5067080;28;20123;-71
2021/04/29 05:46:20;;;;;;;8.60;6.00;;;9.10;68.80;;;;;;5070680;28;20064;-71
2021/04/29 05:48:46;;;;;;;9.43;6.60;;;9.10;69.10;;;;;;5072664;28;20495;-71
2021/04/29 05:51:13;;;;;;;10.35;5.68;;;9.10;69.40;;;;;;5072660;28;20446;-72
2021/04/29 05:53:39;;;;;;;7.57;5.13;;;9.20;69.10;;;;;;5071035;28;20048;-72
2021/04/29 05:56:06;;;;;;;9.47;6.33;;;9.30;69.10;;;;;;5071465;28;20102;-72
2021/04/29 05:58:33;;;;;;;9.52;6.20;;;9.30;69.80;;;;;;5070957;28;20082;-72
2021/04/29 06:00:59;;;;;;;8.63;5.80;;;9.40;69.80;;;;;;5071354;28;20052;-72
2021/04/29 06:03:26;;;;;;;9.88;6.30;;;9.40;69.60;;;;;;5052298;28;20045;-72
2021/04/29 06:05:52;;;;;;;9.85;7.25;;;9.40;69.60;;;;;;5070835;28;20033;-73
2021/04/29 06:08:19;;;;;;;11.23;7.10;;;9.50;69.90;;;;;;5071297;28;20078;-71
2021/04/29 06:10:46;;;;;;;13.45;8.38;;;9.50;70.20;;;;;;5070758;28;20472;-72
2021/04/29 06:13:12;;;;;;;11.30;7.47;;;9.50;70.60;;;;;;5070864;28;20079;-72
2021/04/29 06:15:39;;;;;;;11.75;7.93;;;9.40;70.70;;;;;;5072004;28;20094;-72
2021/04/29 06:18:05;;;;;;;12.50;7.95;;;9.40;70.90;;;;;;5073001;28;20044;-71
2021/04/29 06:20:32;;;;;;;10.77;7.57;;;9.30;71.00;;;;;;5078082;28;20043;-71
2021/04/29 06:22:58;;;;;;;11.60;8.05;;;9.40;71.20;;;;;;5071852;28;20049;-71
2021/04/29 06:25:25;;;;;;;12.15;8.35;;;9.30;71.80;;;;;;5081624;28;20043;-71
2021/04/29 06:27:52;;;;;;;10.83;7.33;;;9.40;71.70;;;;;;5056550;28;20403;-71
2021/04/29 06:30:18;;;;;;;11.13;7.70;;;9.40;71.70;;;;;;5070834;28;20125;-72
2021/04/29 06:32:45;;;;;;;12.02;7.72;;;9.40;71.80;;;;;;5070379;28;20061;-71
2021/04/29 06:35:11;;;;;;;11.23;7.72;;;9.40;72.00;;;;;;5070649;28;20450;-72
2021/04/29 06:37:38;;;;;;;10.17;7.03;;;9.40;72.10;;;;;;5071030;28;20044;-73
2021/04/29 06:40:06;;;;;;;9.15;5.70;;;9.40;72.00;;;;;;5072163;28;20071;-72
2021/04/29 06:42:33;;;;;;;9.95;6.38;;;9.50;72.10;;;;;;5071722;28;20488;-72
2021/04/29 06:44:59;;;;;;;9.88;6.32;;;9.50;72.10;;;;;;5071746;28;20042;-71
2021/04/29 06:47:31;;;;;;;12.48;7.95;;;9.60;72.00;;;;;;5070639;28;20407;-72
2021/04/29 06:49:58;;;;;;;10.45;6.93;;;9.60;72.40;;;;;;5070284;28;20052;-72
2021/04/29 06:52:25;;;;;;;9.60;6.70;;;9.70;72.20;;;;;;5070401;28;20098;-71
2021/04/29 06:54:51;;;;;;;10.90;7.15;;;9.70;72.10;;;;;;5058069;28;20048;-72
2021/04/29 06:57:18;;;;;;;9.88;6.78;;;9.80;72.20;;;;;;5071923;28;20041;-71
2021/04/29 06:59:45;;;;;;;9.93;6.88;;;9.90;72.10;;;;;;5071721;28;20068;-72
2021/04/29 07:02:11;;;;;;;10.45;7.43;;;9.90;72.10;;;;;;5071474;28;20365;-70
2021/04/29 07:04:58;;;;;;;12.43;8.27;;;10.00;72.50;;;;;;5050380;28;20116;-71
2021/04/29 07:07:25;;;;;;;12.48;8.48;;;9.90;72.70;;;;;;5070042;28;20044;-70
2021/04/29 07:09:51;;;;;;;11.95;8.25;;;9.90;72.90;;;;;;5070353;28;20040;-71
2021/04/29 07:12:18;;;;;;;13.52;9.63;;;9.80;73.00;;;;;;5049820;28;20064;-70
2021/04/29 07:14:44;;;;;;;12.93;8.23;;;9.80;73.50;;;;;;5059256;28;20048;-70
2021/04/29 07:17:11;;;;;;;12.65;8.63;;;9.80;73.40;;;;;;5068333;28;20045;-70
2021/04/29 07:19:38;;;;;;;11.00;7.32;;;9.90;73.60;;;;;;5071025;28;20489;-70
2021/04/29 07:22:05;;;;;;;11.07;8.02;;;9.90;73.40;;;;;;5069547;28;20040;-70
2021/04/29 07:24:33;;;;;;;14.43;8.50;;;10.00;73.40;;;;;;5069406;28;20062;-70
2021/04/29 07:27:01;;;;;;;11.95;8.85;;;10.00;73.40;;;;;;5069498;28;20059;-71
2021/04/29 07:29:29;;;;;;;12.65;9.02;;;10.10;73.70;;;;;;5069075;28;20060;-70
2021/04/29 07:31:55;;;;;;;9.88;7.35;;;10.10;73.60;;;;;;5057792;28;20053;-70
2021/04/29 07:34:22;;;;;;;10.18;7.20;;;10.10;73.40;;;;;;5083968;28;20052;-70
2021/04/29 07:36:48;;;;;;;12.75;6.53;;;10.10;73.70;;;;;;5070774;28;20045;-70
2021/04/29 07:39:15;;;;;;;8.38;5.72;;;10.10;73.40;;;;;;5036222;28;20508;-70
2021/04/29 07:41:42;;;;;;;7.07;4.40;;;10.20;73.30;;;;;;5070838;28;20086;-70
2021/04/29 07:44:09;;;;;;;7.32;5.38;;;10.20;73.30;;;;;;5069461;28;20040;-71
2021/04/29 07:46:35;;;;;;;5.97;4.03;;;10.20;73.20;;;;;;5072130;28;20054;-71
2021/04/29 07:49:02;;;;;;;6.47;3.80;;;10.20;73.10;;;;;;5074108;28;20045;-70
2021/04/29 07:51:29;;;;;;;6.13;3.80;;;10.20;73.00;;;;;;5067252;28;20110;-71
2021/04/29 07:53:55;;;;;;;6.65;4.00;;;10.30;73.00;;;;;;5056774;28;20052;-71
2021/04/29 07:56:22;;;;;;;7.20;4.22;;;10.30;72.90;;;;;;5073201;28;20507;-71
2021/04/29 07:58:49;;;;;;;6.18;4.28;;;10.30;72.90;;;;;;5072768;28;20086;-71
2021/04/29 08:01:15;;;;;;;7.28;4.15;;;10.40;72.90;;;;;;5074614;28;20341;-71
2021/04/29 08:03:42;;;;;;;8.23;5.47;;;10.40;72.80;;;;;;5056204;28;20047;-70
2021/04/29 08:06:08;;;;;;;6.68;4.22;;;10.40;72.70;;;;;;5072855;28;20047;-71
2021/04/29 08:08:35;;;;;;;5.15;3.60;;;10.50;72.70;;;;;;5054508;28;20036;-72
2021/04/29 08:11:02;;;;;;;4.55;3.10;;;10.50;72.60;;;;;;5072735;28;20065;-71
2021/04/29 08:13:28;;;;;;;5.67;3.37;;;10.50;72.60;;;;;;5056915;28;20047;-72
2021/04/29 08:15:55;;;;;;;6.00;3.58;;;10.50;72.60;;;;;;5072633;28;20122;-73
2021/04/29 08:18:21;;;;;;;5.95;3.17;;;10.50;72.60;;;;;;5053006;28;20045;-71
2021/04/29 08:20:49;;;;;;;5.60;3.70;;;10.60;72.60;;;;;;5056331;28;20450;-71
2021/04/29 08:23:15;;;;;;;6.32;3.90;;;10.50;73.20;;;;;;5056881;28;20140;-71
2021/04/29 08:25:42;;;;;;;6.45;4.43;;;10.50;72.60;;;;;;5074100;28;20047;-73
2021/04/29 08:28:09;;;;;;;5.40;3.33;;;10.50;72.60;;;;;;5073486;28;20044;-72
2021/04/29 08:30:36;;;;;;;4.50;2.70;;;10.50;72.70;;;;;;5073705;28;20102;-73
2021/04/29 08:33:03;;;;;;;6.00;3.08;;;10.60;72.60;;;;;;5072387;28;20052;-72
2021/04/29 08:35:30;;;;;;;6.53;3.78;;;10.60;72.50;;;;;;5074325;28;20454;-72
2021/04/29 08:37:57;;;;;;;9.13;4.85;;;10.60;72.50;;;;;;5072544;28;20052;-70
2021/04/29 08:40:27;;;;;;;6.38;4.15;;;10.60;72.60;;;;;;5072494;28;20131;-70
2021/04/29 08:42:54;;;;;;;5.80;4.30;;;10.50;72.70;;;;;;5072514;28;20041;-72
2021/04/29 08:45:22;;;;;;;6.38;3.95;;;10.60;72.80;;;;;;5072419;28;20040;-71
2021/04/29 08:47:51;;;;;;;8.13;5.32;;;10.70;72.70;;;;;;5072343;28;20109;-72
2021/04/29 08:50:19;;;;;;;8.07;4.70;;;10.70;72.90;;;;;;5073849;28;20052;-72
2021/04/29 08:52:47;;;;;;;8.73;5.33;;;10.80;72.70;;;;;;5072559;28;20044;-72
2021/04/29 08:55:25;;;;;;;6.85;4.88;;;10.80;72.60;;;;;;5071675;28;20062;-72
2021/04/29 08:57:56;;;;;;;5.75;3.72;;;10.90;72.40;;;;;;5071930;28;20098;-72
2021/04/29 09:00:24;;;;;;;5.80;3.47;;;10.90;72.50;;;;;;5071720;28;20393;-72
2021/04/29 09:02:55;;;;;;;6.00;3.33;;;10.90;72.40;;;;;;5072587;28;20032;-72
2021/04/29 09:05:29;;;;;;;6.07;3.20;;;10.90;72.40;;;;;;5073298;28;20063;-72
2021/04/29 09:08:00;;;;;;;6.07;4.40;;;10.90;72.50;;;;;;5072434;28;20043;-72
2021/04/29 09:10:26;;;;;;;7.25;3.92;;;10.90;72.60;;;;;;5055636;28;20044;-72
2021/04/29 09:12:53;;;;;;;5.43;3.13;;;10.90;72.60;;;;;;5072084;28;20517;-70
2021/04/29 09:15:29;;;;;;;5.45;2.90;;;10.90;72.50;;;;;;5059175;28;20052;-71
2021/04/29 09:18:06;;;;;;;6.70;3.70;;;10.90;72.40;;;;;;5071959;28;20040;-71
2021/04/29 09:20:34;;;;;;;6.72;4.63;;;11.00;72.40;;;;;;5073019;28;20056;-71
2021/04/29 09:23:06;;;;;;;6.40;4.70;;;10.90;72.50;;;;;;5072003;28;20407;-72
2021/04/29 09:25:35;;;;;;;9.38;5.88;;;10.90;72.70;;;;;;5073078;28;20044;-71
2021/04/29 09:28:03;;;;;;;7.28;4.38;;;10.90;72.90;;;;;;5071789;28;20484;-71
2021/04/29 09:30:30;;;;;;;6.85;3.90;;;10.90;72.80;;;;;;5063095;28;20041;-72
2021/04/29 09:32:59;;;;;;;5.78;3.30;;;10.90;72.70;;;;;;5071210;28;20044;-72
2021/04/29 09:35:27;;;;;;;5.57;3.67;;;11.00;72.70;;;;;;5071690;28;20447;-72
2021/04/29 09:37:59;;;;;;;5.53;3.80;;;11.00;72.50;;;;;;5071635;28;20040;-71
2021/04/29 09:40:29;;;;;;;6.57;4.32;;;11.00;72.50;;;;;;5073015;28;20044;-70
2021/04/29 09:42:58;;;;;;;6.63;4.43;;;10.90;72.70;;;;;;5071932;28;20059;-73
2021/04/29 09:45:28;;;;;;;8.73;4.85;;;10.80;72.80;;;;;;5072700;28;20488;-71
2021/04/29 09:48:06;;;;;;;7.20;4.70;;;10.80;73.10;;;;;;5071432;28;20048;-73
2021/04/29 09:50:41;;;;;;;6.80;4.20;;;10.70;73.20;;;;;;5071221;28;20437;-73
2021/04/29 09:53:14;;;;;;;8.63;6.10;;;10.70;73.20;;;;;;5072563;28;20484;-73
2021/04/29 09:55:44;;;;;;;13.68;9.63;;;10.70;73.50;;;;;;5072093;28;20154;-72
2021/04/29 09:58:16;;;;;;;14.23;9.20;;;10.50;74.10;;;;;;5072597;28;20143;-72
2021/04/29 10:00:48;;;;;;;15.65;10.40;;;10.40;74.50;;;;;;5070629;28;20127;-72
2021/04/29 10:03:16;;;;;;;12.17;9.13;;;10.30;75.10;;;;;;5070932;28;20036;-72
2021/04/29 10:05:43;;;;;;;11.27;7.43;;;10.20;75.20;;;;;;5070499;28;20102;-73
2021/04/29 10:08:14;;;;;;;11.70;8.43;;;10.20;75.20;;;;;;5071404;28;20049;-73
2021/04/29 10:10:43;;;;;;;12.38;8.82;;;10.20;75.30;;;;;;5072213;28;20052;-74
2021/04/29 10:13:10;;;;;;;11.95;7.75;;;10.20;75.60;;;;;;5054567;28;20048;-72
2021/04/29 10:15:40;;;;;;;11.20;7.33;;;10.20;75.40;;;;;;5071181;28;20040;-73
2021/04/29 10:18:08;;;;;;;11.77;8.18;;;10.20;75.70;;;;;;5070659;28;20093;-73
2021/04/29 10:20:38;;;;;;;11.82;7.88;;;10.10;75.80;;;;;;5070829;28;20040;-73
2021/04/29 10:23:07;;;;;;;9.43;7.07;;;10.10;75.90;;;;;;5070723;28;20036;-73
2021/04/29 10:25:34;;;;;;;11.02;6.88;;;10.10;76.60;;;;;;5072501;28;20071;-73
2021/04/29 10:28:01;;;;;;;6.70;4.95;;;10.10;75.80;;;;;;5070260;28;20126;-73
2021/04/29 10:30:38;;;;;;;9.80;6.80;;;10.20;75.80;;;;;;5064952;28;20518;-74
2021/04/29 10:33:17;;;;;;;10.43;7.20;;;10.20;75.80;;;;;;5063885;28;20496;-75
2021/04/29 10:35:57;;;;;;;10.23;7.53;;;10.20;75.90;;;;;;5066386;28;20037;-75
2021/04/29 10:38:36;;;;;;;12.10;8.68;;;10.20;75.90;;;;;;5069733;28;20036;-75
2021/04/29 10:41:16;;;;;;;11.27;8.93;;;10.10;76.30;;;;;;5053944;28;20200;-74
2021/04/29 10:43:43;;;;;;;12.38;9.30;;;10.10;76.40;;;;;;5063875;28;20056;-72
2021/04/29 10:46:09;;;;;;;10.35;6.85;;;10.00;76.80;;;;;;5067342;28;20630;-74
2021/04/29 10:48:49;;;;;;;11.77;7.22;;;10.00;76.80;;;;;;5066893;28;20395;-73
2021/04/29 10:51:16;;;;;;;9.30;6.63;;;10.00;76.80;;;;;;5073115;28;20060;-72
2021/04/29 10:53:46;;;;;;;10.15;7.07;;;10.10;76.80;;;;;;5076513;28;20041;-74
2021/04/29 10:56:15;;;;;;;13.02;8.63;;;10.10;77.10;;;;;;5056027;28;20365;-73
2021/04/29 10:58:42;;;;;;;13.57;7.85;;;10.10;77.10;;;;;;5055518;28;20491;-72
2021/04/29 11:01:21;;;;;;;13.97;9.30;;;10.10;77.30;;;;;;5069838;28;20048;-72
2021/04/29 11:03:50;;;;;;;10.53;8.23;;;10.10;77.60;;;;;;5057287;28;20036;-72
2021/04/29 11:06:33;;;;;;;12.43;7.95;;;10.10;77.80;;;;;;5060923;28;20131;-72
2021/04/29 11:09:01;;;;;;;10.20;7.20;;;10.10;77.80;;;;;;5068454;28;20734;-74
2021/04/29 11:11:33;;;;;;;9.70;6.32;;;10.10;77.80;;;;;;5065201;28;20048;-73
2021/04/29 11:14:17;;;;;;;8.90;5.97;;;10.10;77.90;;;;;;5081593;28;20472;-74
2021/04/29 11:16:55;;;;;;;13.73;8.52;;;10.00;78.00;;;;;;5066173;28;20074;-75
2021/04/29 11:19:47;;;;;;;12.25;7.63;;;9.90;78.70;;;;;;5071257;28;20032;-74
2021/04/29 11:22:33;;;;;;;10.35;7.70;;;9.80;78.90;;;;;;5062097;28;20037;-74
2021/04/29 11:25:01;;;;;;;11.13;8.25;;;9.80;79.10;;;;;;5068027;28;20053;-74
2021/04/29 11:27:30;;;;;;;14.00;9.88;;;9.70;79.40;;;;;;5069669;28;20060;-76
2021/04/29 11:30:06;;;;;;;12.37;10.17;;;9.70;80.00;;;;;;5069642;28;20044;-75
2021/04/29 11:32:35;;;;;;;11.15;7.93;;;9.70;80.60;;;;;;5063016;28;20481;-75
2021/04/29 11:35:15;;;;;;;12.18;8.63;;;9.70;80.40;;;;;;5062944;28;20377;-75
2021/04/29 11:37:43;;;;;;;10.93;7.20;;;9.70;81.20;;;;;;5069188;28;20102;-76
2021/04/29 11:40:13;;;;;;;11.07;7.65;;;9.60;80.90;;;;;;5074658;28;20048;-74
2021/04/29 11:42:44;;;;;;;11.68;8.45;;;9.60;81.60;;;;;;5070113;28;20556;-74
2021/04/29 11:45:20;;;;;;;10.85;7.93;;;9.40;81.90;;;;;;5066934;28;20047;-76
2021/04/29 11:48:03;;;;;;;10.32;6.57;;;9.30;82.90;;;;;;5068842;28;20040;-76
2021/04/29 11:50:38;;;;;;;9.55;7.05;;;9.30;82.20;;;;;;5058892;28;20041;-76
2021/04/29 11:53:23;;;;;;;10.97;7.50;;;9.30;82.60;;;;;;5070543;28;20510;-75
2021/04/29 11:55:57;;;;;;;11.75;6.82;;;9.30;82.80;;;;;;5050738;28;20542;-75
2021/04/29 11:58:24;;;;;;;10.15;8.00;;;9.30;82.60;;;;;;5078457;28;20472;-75
2021/04/29 12:00:53;;;;;;;9.97;8.17;;;9.30;82.70;;;;;;5057468;28;20048;-74
2021/04/29 12:03:22;;;;;;;10.37;7.37;;;9.30;82.70;;;;;;5068044;28;20082;-75
2021/04/29 12:05:54;;;;;;;10.60;7.10;;;9.30;82.70;;;;;;5067691;28;20037;-75
2021/04/29 12:08:22;;;;;;;11.40;8.87;;;9.40;82.80;;;;;;5061690;28;20049;-74
2021/04/29 12:10:53;;;;;;;11.00;7.47;;;9.50;83.10;;;;;;5067203;28;20055;-75
2021/04/29 12:13:35;;;;;;;9.87;7.27;;;9.50;82.90;;;;;;5073089;28;20062;-75
2021/04/29 12:16:08;;;;;;;10.30;7.10;;;9.50;83.00;;;;;;5067830;28;20436;-73
2021/04/29 12:18:43;;;;;;;7.53;6.00;;;9.60;83.00;;;;;;5070722;28;20064;-76
2021/04/29 12:21:10;;;;;;;10.18;6.47;;;9.60;82.80;;;;;;5065989;28;20083;-71
2021/04/29 12:23:37;;;;;;;9.32;6.47;;;9.60;82.90;;;;;;5067499;28;20391;-71
2021/04/29 12:26:09;;;;;;;8.38;5.75;;;9.50;82.90;;;;;;5069597;28;20404;-74
2021/04/29 12:28:41;;;;;;;7.22;5.50;;;9.60;83.00;;;;;;5069497;28;20036;-74
2021/04/29 12:31:20;;;;;;;9.07;6.72;;;9.60;83.10;;;;;;5073965;28;20049;-73
2021/04/29 12:34:06;;;;;;;11.20;8.07;;;9.50;83.10;;;;;;5071782;28;20048;-76
2021/04/29 12:36:36;;;;;;;11.27;8.23;;;9.40;83.10;;;;;;5072837;28;20150;-74
2021/04/29 12:39:13;;;;;;;10.68;7.60;;;9.40;83.10;;;;;;5073357;28;20044;-73
2021/04/29 12:42:05;;;;;;;9.90;6.43;;;9.30;83.00;;;;;;5073246;28;20052;-73
2021/04/29 12:44:45;;;;;;;8.77;6.73;;;9.20;83.10;;;;;;5073419;28;20107;-74
2021/04/29 12:47:26;;;;;;;7.97;5.70;;;9.20;83.30;;;;;;5073444;28;20037;-73
2021/04/29 12:50:02;;;;;;;9.73;6.03;;;9.20;83.50;;;;;;5072962;28;20048;-73
2021/04/29 12:52:51;;;;;;;7.23;5.43;;;9.30;83.30;;;;;;5053854;28;20111;-74
2021/04/29 12:55:19;;;;;;;9.57;6.23;;;9.30;83.10;;;;;;5070452;28;20063;-73
2021/04/29 12:57:47;;;;;;;9.63;6.77;;;9.30;82.80;;;;;;5074026;28;20094;-73